createdAt,value
2018-02-02T04:33:07.019Z,5.97
2018-02-02T04:35:39.651Z,5.07
2018-02-02T04:38:11.530Z,5.53
2018-02-02T04:40:43.398Z,5.87
2018-02-02T04:43:15.274Z,5.80
2018-02-02T04:45:47.912Z,5.93
2018-02-02T04:48:19.795Z,5.70
2018-02-02T04:50:51.659Z,5.90
2018-02-02T04:53:23.548Z,5.73
2018-02-02T04:55:55.414Z,5.73
2018-02-02T04:58:27.522Z,5.80
2018-02-02T05:00:59.382Z,5.00
2018-02-02T05:03:32.314Z,5.43
2018-02-02T05:06:04.189Z,4.63
2018-02-02T05:08:36.079Z,5.90
2018-02-02T05:11:07.948Z,5.47
2018-02-02T05:13:39.811Z,5.27
2018-02-02T05:16:11.922Z,5.40
2018-02-02T05:18:43.812Z,5.73
2018-02-02T05:21:15.958Z,5.83
2018-02-02T05:23:47.831Z,5.73
2018-02-02T05:26:19.706Z,6.27
2018-02-02T05:28:51.787Z,6.33
2018-02-02T05:31:23.654Z,6.70
2018-02-02T05:33:55.727Z,6.40
2018-02-02T05:36:27.645Z,6.93
2018-02-02T05:39:00.252Z,8.53
2018-02-02T05:41:32.203Z,8.27
2018-02-02T05:44:04.079Z,8.80
2018-02-02T05:46:35.950Z,8.80
2018-02-02T05:49:07.852Z,9.47
2018-02-02T05:51:39.724Z,10.27
2018-02-02T05:54:11.606Z,9.27
2018-02-02T05:56:43.725Z,9.53
2018-02-02T05:59:15.623Z,11.07
2018-02-02T06:01:47.587Z,11.30
2018-02-02T06:04:19.475Z,10.43
2018-02-02T06:06:51.411Z,11.23
2018-02-02T06:09:23.295Z,11.00
2018-02-02T06:11:55.166Z,10.77
2018-02-02T06:14:27.910Z,10.07
2018-02-02T06:17:00.007Z,10.70
2018-02-02T06:19:36.830Z,10.70
2018-02-02T06:22:08.971Z,11.67
2018-02-02T06:24:40.887Z,10.80
2018-02-02T06:27:12.844Z,9.50
2018-02-02T06:29:45.062Z,10.73
2018-02-02T06:32:16.958Z,9.97
2018-02-02T06:34:48.855Z,10.93
2018-02-02T06:37:20.730Z,10.67
2018-02-02T06:39:53.372Z,10.67
2018-02-02T06:42:25.256Z,10.60
2018-02-02T06:44:57.138Z,11.13
2018-02-02T06:47:29.773Z,11.90
2018-02-02T06:50:01.656Z,11.20
2018-02-02T06:52:33.536Z,11.23
2018-02-02T06:55:05.421Z,11.23
2018-02-02T06:57:37.302Z,10.80
2018-02-02T07:00:09.195Z,10.80
2018-02-02T07:02:41.387Z,11.20
2018-02-02T07:05:13.555Z,11.70
2018-02-02T07:07:45.418Z,11.03
2018-02-02T07:10:17.318Z,10.67
2018-02-02T07:12:49.440Z,11.70
2018-02-02T07:15:21.603Z,11.17
2018-02-02T07:17:53.494Z,11.53
2018-02-02T07:20:25.370Z,10.80
2018-02-02T07:22:57.335Z,11.10
2018-02-02T07:25:29.215Z,10.73
2018-02-02T07:28:01.970Z,11.67
2018-02-02T07:30:33.856Z,11.47
2018-02-02T07:33:05.723Z,11.23
2018-02-02T07:35:37.611Z,10.73
2018-02-02T07:38:09.495Z,11.10
2018-02-02T07:40:41.384Z,10.83
2018-02-02T07:43:13.254Z,11.20
2018-02-02T07:45:45.151Z,11.07
2018-02-02T07:48:17.784Z,10.17
2018-02-02T07:50:49.666Z,10.67
2018-02-02T07:53:22.567Z,9.67
2018-02-02T07:55:54.455Z,10.27
2018-02-02T07:58:26.323Z,9.33
2018-02-02T08:00:58.207Z,10.60
2018-02-02T08:03:30.100Z,10.57
2018-02-02T08:06:02.747Z,10.87
2018-02-02T08:08:34.642Z,10.33
2018-02-02T08:11:07.283Z,11.30
2018-02-02T08:13:39.174Z,9.43
2018-02-02T08:16:11.827Z,10.40
2018-02-02T08:18:43.711Z,10.37
2018-02-02T08:21:16.359Z,9.87
2018-02-02T08:23:48.235Z,10.50
2018-02-02T08:26:20.131Z,10.50
2018-02-02T08:28:52.007Z,10.27
2018-02-02T08:31:23.890Z,10.37
2018-02-02T08:33:55.770Z,9.93
2018-02-02T08:36:27.662Z,10.03
2018-02-02T08:38:59.543Z,9.77
2018-02-02T08:41:31.485Z,10.33
2018-02-02T08:44:03.655Z,9.83
2018-02-02T08:46:35.540Z,9.60
2018-02-02T08:49:07.406Z,9.00
2018-02-02T08:51:39.635Z,8.83
2018-02-02T08:54:11.803Z,8.87
2018-02-02T08:56:43.688Z,8.93
2018-02-02T08:59:15.566Z,8.10
2018-02-02T09:01:47.453Z,7.83
2018-02-02T09:04:19.387Z,7.80
2018-02-02T09:06:51.277Z,7.43
2018-02-02T09:09:23.149Z,7.40
2018-02-02T09:11:56.148Z,7.87
2018-02-02T09:14:28.035Z,7.17
2018-02-02T09:16:59.912Z,6.53
2018-02-02T09:19:31.783Z,6.83
2018-02-02T09:22:03.187Z,5.10
2018-02-02T09:24:35.058Z,4.77
2018-02-02T09:27:07.043Z,5.50
2018-02-02T09:29:39.010Z,5.60
2018-02-02T09:32:10.935Z,5.37
2018-02-02T09:34:42.831Z,5.13
2018-02-02T09:37:14.710Z,5.10
2018-02-02T09:39:46.642Z,5.20
2018-02-02T09:42:18.519Z,5.00
2018-02-02T09:44:50.391Z,5.10
2018-02-02T09:47:22.281Z,4.93
2018-02-02T09:49:54.912Z,6.20
2018-02-02T09:52:26.866Z,4.60
2018-02-02T09:54:58.738Z,4.60
2018-02-02T09:57:30.607Z,5.07
2018-02-02T10:00:02.471Z,4.87
2018-02-02T10:02:34.359Z,4.43
2018-02-02T10:05:06.994Z,4.83
2018-02-02T10:07:38.900Z,4.93
2018-02-02T10:10:11.530Z,4.83
2018-02-02T10:12:43.407Z,4.83
2018-02-02T10:15:15.279Z,4.87
2018-02-02T10:17:47.174Z,4.77
2018-02-02T10:20:19.042Z,4.63
2018-02-02T10:22:50.933Z,4.77
2018-02-02T10:25:22.811Z,4.63
2018-02-02T10:27:54.692Z,4.80
2018-02-02T10:30:27.327Z,4.17
2018-02-02T10:32:59.211Z,4.27
2018-02-02T10:35:31.079Z,4.60
2018-02-02T10:38:03.735Z,4.63
2018-02-02T10:40:35.614Z,4.70
2018-02-02T10:43:07.598Z,4.63
2018-02-02T10:45:40.222Z,4.73
2018-02-02T10:48:12.106Z,5.10
2018-02-02T10:50:44.747Z,5.67
2018-02-02T10:53:16.638Z,5.37
2018-02-02T10:55:48.715Z,5.83
2018-02-02T10:58:21.371Z,6.27
2018-02-02T11:00:53.239Z,6.23
2018-02-02T11:03:25.118Z,6.23
2018-02-02T11:05:57.754Z,6.73
2018-02-02T11:08:29.672Z,6.17
2018-02-02T11:11:02.298Z,6.10
2018-02-02T11:13:34.954Z,7.50
2018-02-02T11:16:06.834Z,6.97
2018-02-02T11:18:38.718Z,7.63
2018-02-02T11:21:10.815Z,7.50
2018-02-02T11:23:42.704Z,8.27
2018-02-02T11:26:14.586Z,7.33
2018-02-02T11:28:46.464Z,7.50
2018-02-02T11:31:18.330Z,7.73
2018-02-02T11:33:50.234Z,7.80
2018-02-02T11:36:22.117Z,7.53
2018-02-02T11:38:53.999Z,8.23
2018-02-02T11:41:25.874Z,8.40
2018-02-02T11:43:58.549Z,8.20
2018-02-02T11:46:30.415Z,7.90
2018-02-02T11:49:02.295Z,7.93
2018-02-02T11:51:34.167Z,7.50
2018-02-02T11:54:06.047Z,6.40
2018-02-02T11:56:37.927Z,7.03
2018-02-02T11:59:09.810Z,6.90
2018-02-02T12:01:42.483Z,6.17
2018-02-02T12:04:14.366Z,6.70
2018-02-02T12:06:46.246Z,6.20
2018-02-02T12:09:18.127Z,6.13
2018-02-02T12:11:49.991Z,7.67
2018-02-02T12:14:21.882Z,6.20
2018-02-02T12:16:53.755Z,5.50
2018-02-02T12:19:26.403Z,5.80
2018-02-02T12:21:58.313Z,5.70
2018-02-02T12:24:30.954Z,6.10
2018-02-02T12:27:02.828Z,4.97
2018-02-02T12:29:34.728Z,5.60
2018-02-02T12:32:06.592Z,4.77
2018-02-02T12:34:38.482Z,5.37
2018-02-02T12:37:10.596Z,5.63
2018-02-02T12:39:42.486Z,4.10
2018-02-02T12:42:14.363Z,4.10
2018-02-02T12:44:46.272Z,4.50
2018-02-02T12:47:18.977Z,3.83
2018-02-02T12:50:01.781Z,3.90
2018-02-02T12:52:33.651Z,4.40
2018-02-02T12:55:05.598Z,4.10
2018-02-02T12:57:37.474Z,3.97
2018-02-02T13:00:09.375Z,4.53
2018-02-02T13:02:41.241Z,4.53
2018-02-02T13:05:13.139Z,3.97
2018-02-02T13:07:45.016Z,3.90
2018-02-02T13:10:16.899Z,3.63
2018-02-02T13:12:48.779Z,4.43
2018-02-02T13:15:20.980Z,4.73
2018-02-02T13:17:53.615Z,4.10
2018-02-02T13:20:25.509Z,4.13
2018-02-02T13:22:58.405Z,4.50
2018-02-02T13:25:30.294Z,4.17
2018-02-02T13:28:02.167Z,4.07
2018-02-02T13:30:34.288Z,3.90
2018-02-02T13:33:06.171Z,4.37
2018-02-02T13:35:38.051Z,4.20
2018-02-02T13:38:09.927Z,4.20
2018-02-02T13:40:41.815Z,5.10
2018-02-02T13:43:13.691Z,4.57
2018-02-02T13:45:46.352Z,4.83
2018-02-02T13:48:18.993Z,5.60
2018-02-02T13:50:50.881Z,4.57
2018-02-02T13:53:22.756Z,5.50
2018-02-02T13:55:55.398Z,4.57
2018-02-02T13:58:27.279Z,4.73
2018-02-02T14:00:59.163Z,4.30
2018-02-02T14:03:31.027Z,4.60
2018-02-02T14:06:02.928Z,4.77
2018-02-02T14:08:34.792Z,3.60
2018-02-02T14:11:06.683Z,4.17
2018-02-02T14:13:38.548Z,4.23
2018-02-02T14:16:11.198Z,4.13
2018-02-02T14:18:43.077Z,4.20
2018-02-02T14:21:14.967Z,4.13
2018-02-02T14:23:46.834Z,4.20
2018-02-02T14:26:18.721Z,4.53
2018-02-02T14:28:50.585Z,4.63
2018-02-02T14:31:22.814Z,4.50
2018-02-02T14:33:54.674Z,4.83
2018-02-02T14:36:26.636Z,5.07
2018-02-02T14:38:58.801Z,5.27
2018-02-02T14:41:30.967Z,6.20
2018-02-02T14:44:02.843Z,5.73
2018-02-02T14:46:34.743Z,6.27
2018-02-02T14:49:06.618Z,5.90
2018-02-02T14:51:38.515Z,5.50
2018-02-02T14:54:10.384Z,4.10
2018-02-02T14:56:42.528Z,3.83
2018-02-02T14:59:14.399Z,2.97
2018-02-02T15:01:46.555Z,2.80
2018-02-02T15:04:18.768Z,2.20
2018-02-02T15:06:50.643Z,2.27
2018-02-02T15:09:22.515Z,2.50
2018-02-02T15:11:54.411Z,2.27
2018-02-02T15:14:26.275Z,2.40
2018-02-02T15:16:58.182Z,2.10
2018-02-02T15:19:30.051Z,2.60
2018-02-02T15:22:01.959Z,2.63
2018-02-02T15:24:33.896Z,7.90
2018-02-02T15:27:06.539Z,2.43
2018-02-02T15:29:38.419Z,2.60
2018-02-02T15:32:11.086Z,2.30
2018-02-02T15:34:42.954Z,2.77
2018-02-02T15:37:14.851Z,3.00
2018-02-02T15:39:47.007Z,3.50
2018-02-02T15:42:18.899Z,3.60
2018-02-02T15:44:50.767Z,3.63
2018-02-02T15:47:22.658Z,4.10
2018-02-02T15:49:55.333Z,4.50
2018-02-02T15:52:27.239Z,4.70
2018-02-02T15:54:59.108Z,4.40
2018-02-02T15:57:30.999Z,4.57
2018-02-02T16:00:02.877Z,4.23
2018-02-02T16:02:34.761Z,5.60
2018-02-02T16:05:07.647Z,5.40
2018-02-02T16:07:39.536Z,6.53
2018-02-02T16:10:11.407Z,6.17
2018-02-02T16:12:43.534Z,6.00
2018-02-02T16:15:15.402Z,6.37
2018-02-02T16:17:47.288Z,6.57
2018-02-02T16:20:19.207Z,6.60
2018-02-02T16:22:51.859Z,6.90
2018-02-02T16:25:23.743Z,7.00
2018-02-02T16:27:56.395Z,6.70
2018-02-02T16:30:28.258Z,6.60
2018-02-02T16:33:01.738Z,6.90
2018-02-02T16:35:33.612Z,7.00
2018-02-02T16:38:05.503Z,6.87
2018-02-02T16:40:38.137Z,7.30
2018-02-02T16:43:10.039Z,7.30
2018-02-02T16:45:42.672Z,7.53
2018-02-02T16:48:14.584Z,6.80
2018-02-02T16:50:46.446Z,8.07
2018-02-02T16:53:18.331Z,8.10
2018-02-02T16:55:50.211Z,7.93
2018-02-02T16:58:22.091Z,9.00
2018-02-02T17:00:53.967Z,9.57
2018-02-02T17:03:26.624Z,9.13
2018-02-02T17:05:58.534Z,9.83
2018-02-02T17:08:31.418Z,10.57
2018-02-02T17:11:03.312Z,13.70
2018-02-02T17:13:35.201Z,12.53
2018-02-02T17:16:07.075Z,12.37
2018-02-02T17:18:39.733Z,13.10
2018-02-02T17:21:11.601Z,12.57
2018-02-02T17:23:43.493Z,12.23
2018-02-02T17:26:15.369Z,12.57
2018-02-02T17:28:47.272Z,13.57
2018-02-02T17:31:19.140Z,14.27
2018-02-02T17:33:51.795Z,14.47
2018-02-02T17:36:23.681Z,14.70
2018-02-02T17:38:55.874Z,16.30
2018-02-02T17:41:27.743Z,15.80
2018-02-02T17:43:59.631Z,14.67
2018-02-02T17:46:31.762Z,14.83
2018-02-02T17:49:03.651Z,15.67
2018-02-02T17:51:35.528Z,15.50
2018-02-02T17:54:07.441Z,15.87
2018-02-02T17:56:39.320Z,15.33
2018-02-02T17:59:11.203Z,15.90
2018-02-02T18:01:43.079Z,16.87
2018-02-02T18:04:14.970Z,18.40
2018-02-02T18:06:47.618Z,17.13
2018-02-02T18:09:19.512Z,17.47
2018-02-02T18:11:52.151Z,18.73
2018-02-02T18:14:24.364Z,18.90
2018-02-02T18:16:56.230Z,18.97
2018-02-02T18:19:28.124Z,19.73
2018-02-02T18:21:59.995Z,20.43
2018-02-02T18:24:31.893Z,21.57
2018-02-02T18:27:04.541Z,21.43
2018-02-02T18:29:36.750Z,21.90
2018-02-02T18:32:08.919Z,21.67
2018-02-02T18:34:40.811Z,20.87
2018-02-02T18:37:12.687Z,22.67
2018-02-02T18:39:44.674Z,22.90
2018-02-02T18:42:16.562Z,22.97
2018-02-02T18:44:48.454Z,22.73
2018-02-02T18:47:20.587Z,23.60
2018-02-02T18:49:52.555Z,23.73
2018-02-02T18:52:24.427Z,22.73
2018-02-02T18:54:56.327Z,23.77
2018-02-02T18:57:28.434Z,23.80
2018-02-02T19:00:00.321Z,22.80
2018-02-02T19:02:32.186Z,23.63
2018-02-02T19:05:04.323Z,22.87
2018-02-02T19:07:36.420Z,22.47
2018-02-02T19:10:08.351Z,24.23
2018-02-02T19:12:40.263Z,24.97
2018-02-02T19:15:12.159Z,23.90
2018-02-02T19:17:44.790Z,24.00
2018-02-02T19:20:16.675Z,24.57
2018-02-02T19:22:48.547Z,25.63
2018-02-02T19:25:21.199Z,23.27
2018-02-02T19:27:53.113Z,24.30
2018-02-02T19:30:24.999Z,23.50
2018-02-02T19:32:56.889Z,24.73
2018-02-02T19:35:28.774Z,24.60
2018-02-02T19:38:01.415Z,22.83
2018-02-02T19:40:33.317Z,23.53
2018-02-02T19:43:05.953Z,24.67
2018-02-02T19:45:37.851Z,25.27
2018-02-02T19:48:10.482Z,25.60
2018-02-02T19:50:42.378Z,26.60
2018-02-02T19:53:14.247Z,26.77
2018-02-02T19:55:46.899Z,25.00
2018-02-02T19:58:18.774Z,27.87
2018-02-02T20:00:50.671Z,27.63
2018-02-02T20:03:22.576Z,27.13
2018-02-02T20:05:55.247Z,26.57
2018-02-02T20:08:27.116Z,26.50
2018-02-02T20:10:59.013Z,26.97
2018-02-02T20:13:31.642Z,27.43
2018-02-02T20:16:03.551Z,24.83
2018-02-02T20:18:35.718Z,25.33
2018-02-02T20:21:07.607Z,25.00
2018-02-02T20:23:39.483Z,25.27
2018-02-02T20:26:11.359Z,25.43
2018-02-02T20:28:43.226Z,25.93
2018-02-02T20:31:15.127Z,25.10
2018-02-02T20:33:47.021Z,24.70
2018-02-02T20:36:18.902Z,24.30
2018-02-02T20:38:50.776Z,23.80
2018-02-02T20:41:22.671Z,23.80
2018-02-02T20:43:54.539Z,24.50
2018-02-02T20:46:26.431Z,24.43
2018-02-02T20:48:58.306Z,25.47
2018-02-02T20:51:30.202Z,26.33
2018-02-02T20:54:02.079Z,24.80
2018-02-02T20:56:33.978Z,25.87
2018-02-02T20:59:05.859Z,25.37
2018-02-02T21:01:38.518Z,25.97
2018-02-02T21:04:10.394Z,26.03
2018-02-02T21:06:43.047Z,27.53
2018-02-02T21:09:14.934Z,27.90
2018-02-02T21:11:46.814Z,26.90
2018-02-02T21:14:18.982Z,25.53
2018-02-02T21:16:50.875Z,26.07
2018-02-02T21:19:22.743Z,26.80
2018-02-02T21:21:54.638Z,27.17
2018-02-02T21:24:26.844Z,28.10
2018-02-02T21:26:58.727Z,26.47
2018-02-02T21:29:30.591Z,26.87
2018-02-02T21:32:02.718Z,27.23
2018-02-02T21:34:34.582Z,27.20
2018-02-02T21:37:06.486Z,27.67
2018-02-02T21:39:38.355Z,26.73
2018-02-02T21:42:10.259Z,26.10
2018-02-02T21:44:42.131Z,26.37
2018-02-02T21:47:14.020Z,25.63
2018-02-02T21:49:45.886Z,26.07
2018-02-02T21:52:17.791Z,27.07
2018-02-02T21:54:50.681Z,23.47
2018-02-02T21:57:22.584Z,25.57
2018-02-02T21:59:54.476Z,26.13
2018-02-02T22:02:26.379Z,25.73
2018-02-02T22:04:58.530Z,26.47
2018-02-02T22:07:30.425Z,25.03
2018-02-02T22:10:02.295Z,23.93
2018-02-02T22:12:34.182Z,27.13
2018-02-02T22:15:06.065Z,24.90
2018-02-02T22:17:38.718Z,25.70
2018-02-02T22:20:10.582Z,23.40
2018-02-02T22:22:43.243Z,25.90
2018-02-02T22:25:15.114Z,23.20
2018-02-02T22:27:47.007Z,24.20
2018-02-02T22:30:18.876Z,23.67
2018-02-02T22:32:50.767Z,24.20
2018-02-02T22:35:22.638Z,22.20
2018-02-02T22:37:54.552Z,22.50
2018-02-02T22:40:26.427Z,21.60
2018-02-02T22:42:58.323Z,23.83
2018-02-02T22:45:30.204Z,23.70
2018-02-02T22:48:02.119Z,23.57
2018-02-02T22:50:33.998Z,21.80
2018-02-02T22:53:05.900Z,23.60
2018-02-02T22:55:38.530Z,23.33
2018-02-02T22:58:10.429Z,22.77
2018-02-02T23:00:43.062Z,25.60
2018-02-02T23:03:14.971Z,23.37
2018-02-02T23:05:47.623Z,22.50
2018-02-02T23:08:19.518Z,22.57
2018-02-02T23:10:51.399Z,22.60
2018-02-02T23:13:23.283Z,20.20
2018-02-02T23:15:55.146Z,21.63
2018-02-02T23:18:27.053Z,19.40
2018-02-02T23:20:59.691Z,22.40
2018-02-02T23:23:31.587Z,19.40
2018-02-02T23:26:04.223Z,20.63
2018-02-02T23:28:36.109Z,18.97
2018-02-02T23:31:07.981Z,18.70
2018-02-02T23:33:40.878Z,17.67
2018-02-02T23:36:12.765Z,18.80
2018-02-02T23:38:44.646Z,18.30
2018-02-02T23:41:16.510Z,16.10
2018-02-02T23:43:48.723Z,16.70
2018-02-02T23:46:20.611Z,15.60
2018-02-02T23:48:52.520Z,13.43
2018-02-02T23:51:24.374Z,13.53
2018-02-02T23:53:56.570Z,13.80
2018-02-02T23:56:28.444Z,11.73
2018-02-02T23:59:00.335Z,12.70
